Time;durP1;ratioP1;P1;durP2;ratioP2;P2;SDS_P1;SDS_P2;PMS_P1;PMS_P2;Temp;Humidity;BMP_temperature;BMP_pressure;BME280_temperature;BME280_humidity;BME280_pressure;Samples;Min_cycle;Max_cycle;Signal;HPM_P1;HPM_P2
2024/04/18 00:02:21;;;;;;;12.23;5.20;;;;;;;1.93;100.00;100712.81;5471565;26;20826;-77
2024/04/18 00:04:46;;;;;;;9.02;5.88;;;;;;;1.94;100.00;100706.56;5484046;26;19990;-75
2024/04/18 00:07:11;;;;;;;11.00;5.13;;;;;;;1.99;100.00;100720.28;5467810;26;19998;-75
2024/04/18 00:09:37;;;;;;;8.50;5.45;;;;;;;1.90;100.00;100718.31;5451168;26;20328;-75
2024/04/18 00:12:02;;;;;;;11.35;5.32;;;;;;;1.90;100.00;100736.72;5483672;26;20005;-76
2024/04/18 00:14:46;;;;;;;9.30;4.68;;;;;;;2.20;100.00;100789.06;5475387;26;20014;-75
2024/04/18 00:17:17;;;;;;;8.60;5.05;;;;;;;2.29;100.00;100762.06;5467330;26;20024;-76
2024/04/18 00:19:42;;;;;;;10.13;4.70;;;;;;;2.30;100.00;100728.66;5463116;26;20007;-76
2024/04/18 00:22:08;;;;;;;8.60;4.85;;;;;;;2.31;100.00;100709.25;5477669;26;20002;-76
2024/04/18 00:24:33;;;;;;;12.98;5.38;;;;;;;2.37;100.00;100705.34;5468584;26;20348;-76
2024/04/18 00:27:18;;;;;;;7.65;4.65;;;;;;;2.44;100.00;100701.31;5482817;26;20402;-76
2024/04/18 00:29:45;;;;;;;10.57;4.85;;;;;;;2.45;100.00;100680.09;5453676;26;20033;-76
2024/04/18 00:32:11;;;;;;;9.75;5.57;;;;;;;2.42;100.00;100669.78;5477633;26;20078;-77
2024/04/18 00:34:36;;;;;;;10.93;5.43;;;;;;;2.48;100.00;100674.63;5472113;26;19994;-76
2024/04/18 00:37:01;;;;;;;7.28;5.25;;;;;;;2.41;100.00;100640.91;5482632;26;20002;-76
2024/04/18 00:39:47;;;;;;;10.85;5.32;;;;;;;2.36;100.00;100622.78;5459871;26;20017;-76
2024/04/18 00:42:33;;;;;;;13.60;5.75;;;;;;;2.34;100.00;100614.16;5466704;26;19998;-76
2024/04/18 00:45:03;;;;;;;9.75;5.22;;;;;;;2.31;100.00;100595.94;5482211;26;20051;-75
2024/04/18 00:47:42;;;;;;;9.95;4.80;;;;;;;2.30;100.00;100602.19;5466928;26;20009;-75
2024/04/18 00:50:09;;;;;;;;;;;;;;;2.28;100.00;100602.28;5482620;26;20012;-75
2024/04/18 00:52:39;;;;;;;10.15;5.32;;;;;;;2.24;100.00;100615.78;5470562;26;19924;-75
2024/04/18 00:55:06;;;;;;;7.82;4.65;;;;;;;2.19;100.00;100607.41;5463503;26;20054;-76
2024/04/18 00:57:33;;;;;;;10.00;4.97;;;;;;;2.13;100.00;100582.34;5469884;26;20005;-75
2024/04/18 00:59:59;;;;;;;11.30;5.18;;;;;;;2.14;100.00;100593.72;5465949;26;19998;-76
2024/04/18 01:02:27;;;;;;;7.15;4.50;;;;;;;2.11;100.00;100606.16;5482587;26;20433;-75
2024/04/18 01:05:12;;;;;;;11.65;5.22;;;;;;;2.09;100.00;100608.06;5482442;26;20325;-76
2024/04/18 01:07:40;;;;;;;11.63;5.80;;;;;;;2.08;100.00;100622.19;5471911;26;20003;-76
2024/04/18 01:10:19;;;;;;;16.15;6.20;;;;;;;2.10;100.00;100661.56;5446344;26;20464;-75
2024/04/18 01:12:54;;;;;;;14.95;7.18;;;;;;;2.13;100.00;100689.47;5474108;26;19994;-77
2024/04/18 01:15:40;;;;;;;14.90;7.53;;;;;;;1.97;100.00;100677.41;5472447;26;20042;-76
2024/04/18 01:18:05;;;;;;;9.52;5.80;;;;;;;1.81;100.00;100632.06;5466935;26;20002;-77
2024/04/18 01:20:31;;;;;;;9.77;5.50;;;;;;;1.79;100.00;100632.16;5467638;26;20018;-75
2024/04/18 01:22:56;;;;;;;10.27;5.97;;;;;;;1.74;100.00;100622.91;5483384;26;20063;-75
2024/04/18 01:25:40;;;;;;;10.27;6.80;;;;;;;1.85;100.00;100651.94;5471542;26;20711;-76
2024/04/18 01:28:06;;;;;;;12.70;6.63;;;;;;;1.83;100.00;100648.59;5476793;26;20010;-75
2024/04/18 01:30:31;;;;;;;12.65;7.43;;;;;;;1.89;100.00;100685.00;5467464;26;20002;-76
2024/04/18 01:33:09;;;;;;;9.27;5.60;;;;;;;1.86;100.00;100677.34;5481269;26;20012;-77
2024/04/18 01:35:34;;;;;;;11.00;6.22;;;;;;;1.82;100.00;100654.78;5483294;26;20002;-77
2024/04/18 01:38:00;;;;;;;12.82;6.60;;;;;;;1.83;100.00;100648.59;5480213;26;20070;-77
2024/04/18 01:40:44;;;;;;;10.60;6.05;;;;;;;1.83;100.00;100632.81;5460252;26;20003;-76
2024/04/18 01:43:28;;;;;;;12.68;5.93;;;;;;;1.92;100.00;100647.94;5469396;26;20033;-76
2024/04/18 01:45:56;;;;;;;10.55;6.50;;;;;;;2.00;100.00;100660.56;5483018;26;20010;-75
2024/04/18 01:48:22;;;;;;;12.70;7.28;;;;;;;2.02;100.00;100658.66;5476869;26;20083;-75
2024/04/18 01:51:05;;;;;;;12.48;6.13;;;;;;;2.02;100.00;100654.22;5475092;26;20071;-75
2024/04/18 01:53:31;;;;;;;18.42;7.90;;;;;;;2.10;100.00;100674.75;5468949;26;20009;-76
2024/04/18 01:55:56;;;;;;;18.45;7.75;;;;;;;2.09;100.00;100684.44;5477031;26;20665;-75
2024/04/18 01:58:40;;;;;;;11.82;6.70;;;;;;;2.16;100.00;100703.28;5482283;26;20042;-76
2024/04/18 02:01:05;;;;;;;68.97;10.30;;;;;;;2.23;100.00;100727.41;5479775;26;19998;-75
2024/04/18 02:03:31;;;;;;;25.45;8.95;;;;;;;2.26;100.00;100749.09;5470393;26;19998;-76
2024/04/18 02:06:11;;;;;;;21.02;7.63;;;;;;;2.31;100.00;100767.19;5466147;26;20072;-76
2024/04/18 02:08:45;;;;;;;15.68;8.25;;;;;;;2.33;100.00;100778.47;5482506;26;20009;-78
2024/04/18 02:11:16;;;;;;;15.82;7.63;;;;;;;2.43;100.00;100805.84;5481312;26;19998;-75
2024/04/18 02:14:01;;;;;;;36.90;10.27;;;;;;;2.37;100.00;100789.66;5481641;26;20074;-76
2024/04/18 02:16:27;;;;;;;22.45;9.40;;;;;;;2.32;100.00;100808.44;5481125;26;20010;-75
2024/04/18 02:19:11;;;;;;;196.10;16.50;;;;;;;2.36;100.00;100820.41;5480318;26;20089;-77
2024/04/18 02:21:55;;;;;;;93.22;13.77;;;;;;;2.47;100.00;100867.09;5457512;26;20484;-76
2024/04/18 02:25:02;;;;;;;40.03;10.57;;;;;;;2.66;100.00;100885.09;5478704;26;19998;-75
2024/04/18 02:27:28;;;;;;;;;;;;;;;2.70;100.00;100886.56;5466401;26;20467;-75
2024/04/18 02:29:53;;;;;;;47.70;9.88;;;;;;;2.68;100.00;100878.78;5473172;26;19924;-76
2024/04/18 02:32:37;;;;;;;94.70;14.60;;;;;;;2.68;100.00;100872.66;5454761;26;19998;-75
2024/04/18 02:35:12;;;;;;;153.68;19.45;;;;;;;2.59;100.00;100863.59;5478383;26;20002;-75
2024/04/18 02:37:39;;;;;;;149.10;17.67;;;;;;;2.56;100.00;100860.34;5451951;26;20002;-75
2024/04/18 02:40:04;;;;;;;17.15;9.32;;;;;;;2.55;100.00;100864.75;5465729;26;20009;-75
2024/04/18 02:42:38;;;;;;;16.23;9.07;;;;;;;2.54;100.00;100861.28;5460005;26;20027;-75
2024/04/18 02:45:03;;;;;;;39.00;12.98;;;;;;;2.59;100.00;100870.66;5474548;26;20070;-75
2024/04/18 02:47:50;;;;;;;32.25;9.48;;;;;;;2.51;100.00;100861.50;5458751;26;20891;-75
2024/04/18 02:50:35;;;;;;;35.88;10.07;;;;;;;2.50;100.00;100870.34;5467861;26;19998;-76
2024/04/18 02:53:00;;;;;;;57.28;13.70;;;;;;;2.56;100.00;100869.09;5468935;21;20011;-73
2024/04/18 02:55:26;;;;;;;16.43;9.47;;;;;;;2.58;100.00;100875.09;5404291;26;20000;-73
2024/04/18 02:57:54;;;;;;;39.90;13.02;;;;;;;2.65;100.00;100883.44;5418916;26;20229;-73
2024/04/18 03:00:19;;;;;;;109.53;18.83;;;;;;;2.58;100.00;100871.63;5405958;26;20022;-73
2024/04/18 03:03:05;;;;;;;28.38;10.23;;;;;;;2.65;100.00;100879.00;5419319;26;20000;-74
2024/04/18 03:05:30;;;;;;;19.65;9.52;;;;;;;2.71;100.00;100893.53;5371092;26;20073;-73
2024/04/18 03:07:57;;;;;;;29.58;12.05;;;;;;;2.74;100.00;100893.34;5433227;26;20076;-73
2024/04/18 03:10:22;;;;;;;;;;;;;;;2.72;100.00;100888.16;5406000;26;20010;-73
2024/04/18 03:12:59;;;;;;;83.00;13.65;;;;;;;2.57;100.00;100869.94;5380429;26;20422;-73
2024/04/18 03:15:44;;;;;;;18.52;8.77;;;;;;;2.60;100.00;100875.84;5373300;26;20086;-73
2024/04/18 03:18:13;;;;;;;79.55;11.85;;;;;;;2.53;100.00;100870.16;5377491;26;20004;-73
2024/04/18 03:20:38;;;;;;;76.22;13.18;;;;;;;2.62;100.00;100881.00;5409217;26;20396;-73
2024/04/18 03:23:08;;;;;;;47.28;12.15;;;;;;;2.65;100.00;100884.25;5392925;26;20016;-73
2024/04/18 03:25:53;;;;;;;239.18;22.05;;;;;;;2.51;100.00;100879.97;5375899;26;20008;-73
2024/04/18 03:28:19;;;;;;;57.92;11.85;;;;;;;2.58;100.00;100898.00;5374151;26;20694;-73
2024/04/18 03:30:44;;;;;;;33.10;11.00;;;;;;;2.64;100.00;100900.19;5384941;26;20354;-73
2024/04/18 03:33:10;;;;;;;106.18;18.60;;;;;;;2.72;100.00;100897.88;5379998;26;20000;-73
2024/04/18 03:35:39;;;;;;;22.38;9.73;;;;;;;2.69;100.00;100900.69;5394567;26;20007;-73
2024/04/18 03:38:13;;;;;;;151.20;19.88;;;;;;;2.66;100.00;100896.47;5379984;26;20443;-73
2024/04/18 03:40:38;;;;;;;71.78;14.88;;;;;;;2.75;100.00;100900.28;5399829;26;20076;-73
2024/04/18 03:43:07;;;;;;;46.65;14.02;;;;;;;2.86;100.00;100910.91;5386784;26;20006;-73
2024/04/18 03:45:32;;;;;;;131.20;16.88;;;;;;;2.86;100.00;100905.63;5389729;26;20011;-73
2024/04/18 03:48:18;;;;;;;;;;;;;;;2.87;100.00;100906.47;5389713;26;20560;-73
2024/04/18 03:50:43;;;;;;;34.28;11.15;;;;;;;2.94;100.00;100911.19;5392339;26;19937;-73
2024/04/18 03:53:18;;;;;;;159.55;21.90;;;;;;;2.91;100.00;100911.41;5399885;26;20000;-73
2024/04/18 03:55:43;;;;;;;51.50;14.60;;;;;;;2.90;100.00;100899.19;5397670;26;20468;-73
2024/04/18 03:58:09;;;;;;;76.60;15.10;;;;;;;2.86;100.00;100897.72;5404715;26;20067;-74
2024/04/18 04:00:49;;;;;;;62.72;14.95;;;;;;;2.85;100.00;100901.28;5440250;26;20005;-73
2024/04/18 04:03:15;;;;;;;42.42;14.13;;;;;;;2.90;100.00;100909.75;5373412;26;20486;-74
2024/04/18 04:05:41;;;;;;;64.80;13.90;;;;;;;3.02;100.00;100917.72;5384686;26;20105;-74
2024/04/18 04:08:06;;;;;;;25.45;11.70;;;;;;;3.12;100.00;100929.31;5387360;26;20099;-73
2024/04/18 04:10:41;;;;;;;49.08;15.10;;;;;;;3.11;100.00;100930.25;5381274;26;20003;-73
2024/04/18 04:13:07;;;;;;;151.88;21.58;;;;;;;3.11;100.00;100924.97;5400932;26;20000;-73
2024/04/18 04:15:51;;;;;;;109.82;20.23;;;;;;;3.11;100.00;100933.75;5390394;26;20000;-73
2024/04/18 04:18:35;;;;;;;31.83;14.15;;;;;;;3.19;100.00;100938.47;5378798;26;20007;-73
2024/04/18 04:21:35;;;;;;;99.88;21.83;;;;;;;3.21;100.00;100936.56;5390330;26;20018;-74
2024/04/18 04:24:01;;;;;;;66.90;16.77;;;;;;;3.27;100.00;100945.84;5391342;26;20490;-73
2024/04/18 04:26:46;;;;;;;143.82;23.85;;;;;;;3.36;100.00;100953.91;5386728;26;20004;-73
2024/04/18 04:29:13;;;;;;;43.90;17.52;;;;;;;3.44;100.00;100957.81;5398085;26;20076;-73
2024/04/18 04:31:38;;;;;;;60.38;17.85;;;;;;;3.51;100.00;100964.31;5398910;26;20000;-73
2024/04/18 04:34:03;;;;;;;32.33;17.23;;;;;;;3.58;100.00;100962.91;5372035;26;20000;-73
2024/04/18 04:36:29;;;;;;;90.38;21.38;;;;;;;3.66;100.00;100965.84;5373030;26;20000;-73
2024/04/18 04:38:55;;;;;;;239.73;29.50;;;;;;;3.65;100.00;100964.16;5373481;26;20015;-74
2024/04/18 04:41:33;;;;;;;135.57;25.40;;;;;;;3.77;100.00;100973.00;5371148;26;20015;-73
2024/04/18 04:43:58;;;;;;;243.27;33.35;;;;;;;3.86;100.00;100977.56;5370530;26;20075;-74
2024/04/18 04:46:24;;;;;;;120.90;25.42;;;;;;;3.94;100.00;100983.16;5399969;26;20000;-73
2024/04/18 04:49:09;;;;;;;104.88;26.08;;;;;;;3.97;100.00;100984.72;5389144;26;20011;-74
2024/04/18 04:51:54;;;;;;;297.10;37.28;;;;;;;4.02;100.00;100978.13;5380289;26;21012;-74
2024/04/18 04:54:41;;;;;;;158.60;29.45;;;;;;;4.03;100.00;100979.00;5383153;26;20011;-73
2024/04/18 04:57:07;;;;;;;327.63;38.40;;;;;;;4.09;100.00;100977.69;5384675;26;20457;-73
2024/04/18 04:59:32;;;;;;;62.38;22.23;;;;;;;4.13;100.00;100979.97;5402583;26;20014;-73
2024/04/18 05:01:58;;;;;;;236.85;40.50;;;;;;;4.21;100.00;100987.31;5379717;26;20008;-73
2024/04/18 05:04:42;;;;;;;83.70;23.60;;;;;;;4.23;100.00;100988.88;5372686;26;20007;-73
2024/04/18 05:07:27;;;;;;;40.10;20.45;;;;;;;4.35;100.00;100983.63;5391937;26;20015;-73
2024/04/18 05:09:52;;;;;;;90.90;24.20;;;;;;;4.22;100.00;100974.00;5408021;26;20079;-73
2024/04/18 05:12:18;;;;;;;136.77;27.27;;;;;;;4.27;100.00;100975.47;5393572;26;20080;-73
2024/04/18 05:14:43;;;;;;;131.90;31.23;;;;;;;4.37;100.00;100989.66;5408211;26;20000;-73
2024/04/18 05:17:40;;;;;;;406.88;52.63;;;;;;;4.44;100.00;100985.59;5383208;26;20641;-73
2024/04/18 05:20:12;;;;;;;113.88;26.40;;;;;;;4.49;100.00;100986.06;5407995;26;20003;-74
2024/04/18 05:22:37;;;;;;;330.45;43.83;;;;;;;4.58;100.00;100993.28;5408394;26;20081;-73
2024/04/18 05:25:03;;;;;;;53.40;22.73;;;;;;;4.57;100.00;100983.69;5407185;26;20084;-73
2024/04/18 05:27:28;;;;;;;39.17;20.15;;;;;;;4.77;100.00;100999.81;5392931;26;20018;-74
2024/04/18 05:32:37;;;;;;;62.67;20.65;;;;;;;4.85;100.00;100994.78;5372332;26;20014;-73
2024/04/18 05:35:08;;;;;;;59.90;18.38;;;;;;;5.00;100.00;101012.09;5456082;26;20008;-73
2024/04/18 05:37:34;;;;;;;128.93;24.98;;;;;;;4.72;100.00;100975.53;5393190;26;20399;-73
2024/04/18 05:39:59;;;;;;;211.23;26.92;;;;;;;4.58;100.00;100961.56;5399925;26;20841;-73
2024/04/18 05:42:25;;;;;;;230.45;31.17;;;;;;;4.87;100.00;100984.94;5405969;26;20004;-73
2024/04/18 05:45:08;;;;;;;171.23;28.23;;;;;;;5.06;100.00;100989.63;5392872;26;20007;-73
2024/04/18 05:47:53;;;;;;;136.23;22.92;;;;;;;4.93;100.00;100971.19;5379333;26;20000;-73
2024/04/18 05:50:20;;;;;;;96.80;22.87;;;;;;;5.01;100.00;100975.88;5372783;26;20061;-73
2024/04/18 05:52:45;;;;;;;79.75;19.40;;;;;;;5.42;100.00;100988.47;5404078;26;20274;-73
2024/04/18 05:55:19;;;;;;;113.53;24.00;;;;;;;5.53;100.00;100987.63;5376780;26;20000;-73
2024/04/18 05:57:44;;;;;;;283.52;30.63;;;;;;;5.63;100.00;100966.53;5405112;26;20349;-74
2024/04/18 06:00:30;;;;;;;256.80;30.10;;;;;;;5.86;100.00;100960.19;5377295;26;20082;-73
2024/04/18 06:02:55;;;;;;;134.30;21.77;;;;;;;6.02;100.00;100957.16;5395015;26;20067;-74
2024/04/18 06:05:20;;;;;;;56.93;17.17;;;;;;;6.34;100.00;100972.16;5390280;26;20653;-73
2024/04/18 06:08:05;;;;;;;172.00;24.52;;;;;;;6.33;100.00;100944.78;5405224;26;20009;-73
2024/04/18 06:10:30;;;;;;;98.22;16.67;;;;;;;6.37;100.00;100915.34;5403824;26;19996;-73
2024/04/18 06:13:16;;;;;;;148.27;19.23;;;;;;;5.78;100.00;100864.59;5401427;26;20018;-74
2024/04/18 06:15:45;;;;;;;;;;;;;;;5.97;100.00;100894.88;5391994;26;20000;-74
2024/04/18 06:18:11;;;;;;;77.00;15.70;;;;;;;6.23;100.00;100906.78;5388048;26;20363;-73
2024/04/18 06:20:41;;;;;;;90.97;14.00;;;;;;;6.67;100.00;100922.50;5377148;26;20049;-73
2024/04/18 06:23:07;;;;;;;19.20;9.45;;;;;;;6.70;100.00;100899.19;5377185;26;20000;-73
2024/04/18 06:25:35;;;;;;;18.80;9.75;;;;;;;6.79;100.00;100875.47;5380827;26;20064;-73
2024/04/18 06:28:01;;;;;;;21.17;10.18;;;;;;;6.55;100.00;100826.25;5393182;26;20012;-73
2024/04/18 06:30:27;;;;;;;;;;;;;;;6.69;100.00;100844.44;5391467;26;20004;-73
2024/04/18 06:32:52;;;;;;;21.52;8.82;;;;;;;6.86;100.00;100844.75;5379776;26;19998;-74
2024/04/18 06:35:18;;;;;;;18.87;8.60;;;;;;;7.45;100.00;100845.69;5389522;26;20073;-74
2024/04/18 06:37:43;;;;;;;16.52;8.15;;;;;;;7.39;100.00;100797.44;5387251;26;20230;-74
2024/04/18 06:40:09;;;;;;;15.07;9.17;;;;;;;7.29;100.00;100761.25;5374139;26;20434;-74
2024/04/18 06:42:34;;;;;;;12.35;7.32;;;;;;;7.85;100.00;100834.06;5371155;26;20015;-74
2024/04/18 06:44:59;;;;;;;12.33;7.63;;;;;;;8.62;100.00;100846.31;5400010;26;19996;-74
2024/04/18 06:47:25;;;;;;;9.77;7.23;;;;;;;9.41;100.00;100786.19;5406594;26;20007;-74
2024/04/18 06:50:08;;;;;;;11.65;7.10;;;;;;;10.39;100.00;100693.41;5409564;26;19996;-74
2024/04/18 06:52:34;;;;;;;6.47;5.10;;;;;;;11.22;100.00;100646.28;5395508;26;20014;-73
2024/04/18 06:54:59;;;;;;;8.83;5.77;;;;;;;11.89;100.00;100461.38;5405265;26;20140;-73
2024/04/18 06:57:43;;;;;;;9.20;4.75;;;;;;;12.45;100.00;100312.81;5382664;26;20412;-74
2024/04/18 07:00:10;;;;;;;8.88;5.88;;;;;;;12.25;100.00;99986.03;5394718;26;20769;-74
2024/04/18 07:02:36;;;;;;;9.77;5.15;;;;;;;12.84;100.00;99984.00;5388813;26;20058;-73
2024/04/18 07:05:21;;;;;;;6.50;4.50;;;;;;;13.43;100.00;99870.94;5388604;26;20011;-74
2024/04/18 07:07:46;;;;;;;6.45;5.00;;;;;;;13.32;100.00;99685.72;5383182;26;20000;-74
2024/04/18 07:10:31;;;;;;;7.00;5.25;;;;;;;13.86;100.00;99655.97;5389297;26;20000;-74
2024/04/18 07:12:56;;;;;;;4.45;3.58;;;;;;;13.23;100.00;99596.66;5388432;26;20417;-74
2024/04/18 07:15:22;;;;;;;8.67;4.63;;;;;;;12.91;100.00;99500.00;5388573;26;20011;-74
2024/04/18 07:18:07;;;;;;;7.63;5.03;;;;;;;12.53;100.00;99393.56;5403034;26;20846;-74
2024/04/18 07:20:33;;;;;;;7.18;4.75;;;;;;;13.14;100.00;99678.28;5407332;26;19996;-74
2024/04/18 07:23:05;;;;;;;5.43;3.50;;;;;;;13.46;100.00;99631.91;5408064;26;20024;-74
2024/04/18 07:25:30;;;;;;;6.15;4.18;;;;;;;13.40;100.00;99549.63;5374703;26;20000;-73
2024/04/18 07:27:56;;;;;;;3.78;3.38;;;;;;;13.70;100.00;99598.22;5408203;26;20454;-74
2024/04/18 07:30:21;;;;;;;6.87;4.13;;;;;;;13.93;100.00;99538.72;5391397;26;20023;-74
2024/04/18 07:32:47;;;;;;;6.77;4.10;;;;;;;13.96;100.00;99472.25;5395166;26;20076;-74
2024/04/18 07:35:12;;;;;;;7.20;3.40;;;;;;;13.79;100.00;99434.34;5394431;26;20350;-74
2024/04/18 07:37:40;;;;;;;5.53;3.60;;;;;;;13.64;100.00;99505.19;5421927;26;20241;-73
2024/04/18 07:40:12;;;;;;;6.23;4.00;;;;;;;13.45;100.00;99402.34;5409292;26;20556;-73
2024/04/18 07:42:37;;;;;;;4.97;3.30;;;;;;;13.41;100.00;99551.25;5407047;26;20003;-74
2024/04/18 07:45:03;;;;;;;5.38;3.28;;;;;;;13.19;100.00;99489.03;5408807;26;20084;-73
2024/04/18 07:47:28;;;;;;;7.07;4.10;;;;;;;13.66;100.00;99519.22;5404061;26;19996;-73
2024/04/18 07:49:54;;;;;;;4.33;3.43;;;;;;;13.71;99.46;99510.53;5408652;26;20003;-74
2024/04/18 07:52:19;;;;;;;5.03;3.57;;;;;;;13.84;97.99;99482.84;5408528;26;21405;-73
2024/04/18 07:54:45;;;;;;;7.43;3.33;;;;;;;14.07;96.11;99442.00;5409252;26;20003;-73
2024/04/18 07:57:10;;;;;;;4.22;3.30;;;;;;;13.83;93.68;99267.38;5408372;26;20084;-73
2024/04/18 07:59:36;;;;;;;5.43;3.27;;;;;;;13.16;94.49;99255.47;5408536;26;20010;-73
2024/04/18 08:02:01;;;;;;;5.57;3.50;;;;;;;13.86;94.91;99491.47;5406197;26;20358;-73
2024/04/18 08:04:26;;;;;;;8.37;3.40;;;;;;;13.72;90.33;99107.22;5407428;26;19995;-74
2024/04/18 08:06:52;;;;;;;5.37;3.17;;;;;;;13.63;92.52;99403.53;5407371;26;20670;-73
2024/04/18 08:09:17;;;;;;;3.70;2.67;;;;;;;13.28;90.98;99237.72;5407770;26;20470;-73
2024/04/18 08:11:43;;;;;;;2.75;2.28;;;;;;;13.85;90.14;99351.16;5408579;26;20333;-73
2024/04/18 08:14:08;;;;;;;4.30;2.47;;;;;;;13.97;87.92;99195.66;5407667;26;20949;-73
2024/04/18 08:16:34;;;;;;;6.30;3.00;;;;;;;13.45;87.48;99101.28;5407519;26;19995;-74
2024/04/18 08:18:59;;;;;;;4.30;2.43;;;;;;;13.88;85.66;99097.72;5377551;26;20003;-73
2024/04/18 08:21:27;;;;;;;3.13;2.23;;;;;;;14.14;86.27;99242.34;5407467;26;19999;-74
2024/04/18 08:23:52;;;;;;;3.50;2.63;;;;;;;13.86;85.91;99156.97;5406583;26;20015;-73
2024/04/18 08:26:18;;;;;;;4.88;2.72;;;;;;;13.46;85.50;99119.84;5405755;26;20011;-73
2024/04/18 08:28:43;;;;;;;5.85;2.65;;;;;;;13.39;84.01;98997.63;5406136;26;20003;-73
2024/04/18 08:31:09;;;;;;;4.03;2.67;;;;;;;13.72;85.84;99338.69;5407488;26;20014;-73
2024/04/18 08:33:34;;;;;;;4.70;2.40;;;;;;;13.85;84.22;99166.06;5407814;26;20003;-74
2024/04/18 08:35:59;;;;;;;5.17;2.53;;;;;;;14.66;84.11;99386.22;5405789;26;20755;-74
2024/04/18 08:38:25;;;;;;;3.80;2.73;;;;;;;13.74;80.17;98735.00;5400576;26;20073;-74
2024/04/18 08:40:50;;;;;;;8.07;3.53;;;;;;;14.27;81.08;99072.25;5406038;26;20000;-73
2024/04/18 08:43:16;;;;;;;3.30;2.40;;;;;;;14.53;80.99;99150.81;5403442;26;20350;-73
2024/04/18 08:45:43;;;;;;;4.35;2.67;;;;;;;15.17;79.75;99200.38;5405198;26;20129;-74
2024/04/18 08:48:13;;;;;;;6.70;2.75;;;;;;;15.44;78.29;99103.13;5407884;26;20545;-74
2024/04/18 08:50:41;;;;;;;5.82;2.33;;;;;;;15.46;77.10;99001.50;5394081;26;20003;-73
2024/04/18 08:53:06;;;;;;;4.07;2.10;;;;;;;14.98;74.90;98675.63;5404048;26;20597;-75
2024/04/18 08:55:32;;;;;;;4.80;2.00;;;;;;;15.11;75.12;98851.84;5402337;26;20058;-73
2024/04/18 08:58:05;;;;;;;3.90;1.30;;;;;;;16.03;73.30;98875.09;5407761;26;20400;-74
2024/04/18 09:00:32;;;;;;;4.72;1.90;;;;;;;15.39;70.63;98471.16;5406068;26;20010;-74
2024/04/18 09:02:59;;;;;;;3.22;1.67;;;;;;;15.46;68.85;98399.19;5408028;26;20032;-72
2024/04/18 09:05:24;;;;;;;3.92;1.60;;;;;;;16.06;70.13;98719.56;5407528;26;20000;-75
2024/04/18 09:07:50;;;;;;;6.23;2.23;;;;;;;15.59;70.28;98654.28;5405987;26;20451;-73
2024/04/18 09:10:21;;;;;;;3.75;1.55;;;;;;;16.56;69.51;98882.94;5376407;26;20261;-73
2024/04/18 09:12:48;;;;;;;4.50;2.03;;;;;;;16.06;68.20;98625.34;5384908;26;20354;-72
2024/04/18 09:15:14;;;;;;;4.18;2.00;;;;;;;15.84;67.94;98601.94;5370124;26;20008;-74
2024/04/18 09:17:39;;;;;;;4.55;1.98;;;;;;;15.13;66.13;98204.75;5451226;26;20093;-77
2024/04/18 09:20:05;;;;;;;2.70;1.67;;;;;;;16.10;68.49;98874.13;5419124;26;20522;-75
2024/04/18 09:22:31;;;;;;;3.80;2.33;;;;;;;16.50;67.13;98782.34;5392719;26;20004;-73
2024/04/18 09:24:56;;;;;;;4.27;2.20;;;;;;;15.77;66.57;98516.03;5382058;26;20018;-73
2024/04/18 09:27:21;;;;;;;4.53;2.10;;;;;;;16.54;66.19;98723.44;5388233;26;20011;-73
2024/04/18 09:29:47;;;;;;;3.27;1.60;;;;;;;17.27;62.64;98517.13;5384389;26;20016;-73
2024/04/18 09:32:14;;;;;;;2.87;1.97;;;;;;;17.46;62.29;98532.88;5374771;26;20015;-73
2024/04/18 09:34:42;;;;;;;4.13;2.60;;;;;;;17.14;60.24;98159.06;5393901;26;20364;-74
2024/04/18 09:37:12;;;;;;;4.85;1.85;;;;;;;16.43;59.87;98016.94;5417589;26;20080;-75
2024/04/18 09:39:38;;;;;;;4.32;2.00;;;;;;;16.08;58.72;97794.28;5400453;26;20106;-74
2024/04/18 09:42:27;;;;;;;4.97;2.10;;;;;;;17.01;60.09;98388.66;5371725;26;20000;-73
2024/04/18 09:45:02;;;;;;;4.63;2.22;;;;;;;17.63;59.04;98425.63;5381012;26;20000;-73
2024/04/18 09:47:29;;;;;;;5.28;2.70;;;;;;;17.00;57.98;98121.03;5385646;26;20355;-73
2024/04/18 09:49:55;;;;;;;3.72;2.40;;;;;;;18.10;57.67;98457.06;5396245;26;20014;-77
2024/04/18 09:52:21;;;;;;;;;;;;;;;19.00;56.87;98554.97;5390639;26;20004;-73
2024/04/18 09:54:47;;;;;;;4.38;2.33;;;;;;;17.15;55.68;97839.88;5370118;26;20330;-73
2024/04/18 09:57:14;;;;;;;6.22;1.98;;;;;;;17.76;55.87;98146.34;5371025;26;19996;-73
2024/04/18 09:59:41;;;;;;;3.05;1.80;;;;;;;17.03;57.18;98135.84;5397025;26;20453;-76
2024/04/18 10:02:11;;;;;;;3.83;1.70;;;;;;;16.92;55.67;97865.53;5439463;26;20006;-73
2024/04/18 10:04:38;;;;;;;6.20;1.98;;;;;;;17.34;55.00;98026.09;5375260;26;20461;-73
2024/04/18 10:07:07;;;;;;;4.20;1.90;;;;;;;17.92;55.54;98328.00;5391509;26;20010;-75
2024/04/18 10:09:35;;;;;;;5.35;1.65;;;;;;;18.50;54.26;98279.06;5401069;26;20000;-73
2024/04/18 10:12:01;;;;;;;2.55;1.45;;;;;;;17.08;53.63;97689.22;5384206;26;20000;-73
2024/04/18 10:14:26;;;;;;;2.88;1.77;;;;;;;16.14;54.15;97497.19;5371257;26;20019;-75
2024/04/18 10:16:52;;;;;;;2.33;1.50;;;;;;;15.84;55.35;97789.47;5380092;26;20473;-75
2024/04/18 10:19:21;;;;;;;3.13;1.10;;;;;;;16.59;55.34;98053.56;5406105;26;20078;-73
2024/04/18 10:21:57;;;;;;;3.95;1.40;;;;;;;17.82;53.62;98196.56;5408710;26;20003;-74
2024/04/18 10:24:29;;;;;;;4.68;1.30;;;;;;;16.19;52.07;97320.34;5410490;26;20014;-73
2024/04/18 10:26:59;;;;;;;3.42;1.40;;;;;;;16.63;53.30;97782.63;5395492;26;20007;-76
2024/04/18 10:29:26;;;;;;;4.00;1.20;;;;;;;17.37;53.46;98059.81;5395410;26;20007;-74
2024/04/18 10:31:56;;;;;;;2.15;1.30;;;;;;;17.32;51.86;97723.56;5410308;26;20012;-72
2024/04/18 10:34:23;;;;;;;3.15;1.20;;;;;;;16.84;51.70;97545.50;5408463;26;20011;-73
2024/04/18 10:36:49;;;;;;;5.03;1.17;;;;;;;17.20;49.91;97438.19;5389160;26;20401;-74
2024/04/18 10:39:30;;;;;;;2.03;0.95;;;;;;;17.08;49.92;97473.59;5404478;26;20032;-75
2024/04/18 10:42:06;;;;;;;7.05;1.20;;;;;;;18.03;49.67;97788.91;5378008;26;20023;-73
2024/04/18 10:44:33;;;;;;;1.83;0.93;;;;;;;18.81;49.84;98100.59;5377879;26;20000;-73
2024/04/18 10:46:58;;;;;;;3.00;1.10;;;;;;;17.20;47.19;96992.63;5377557;26;20702;-73
2024/04/18 10:49:24;;;;;;;2.10;0.90;;;;;;;18.14;49.15;97847.94;5374320;26;20011;-76
2024/04/18 10:51:50;;;;;;;4.22;1.85;;;;;;;19.29;49.11;98198.97;5388918;26;20036;-73
2024/04/18 10:54:15;;;;;;;3.28;1.40;;;;;;;18.89;47.24;97635.88;5372730;26;20015;-75
2024/04/18 10:56:41;;;;;;;2.10;1.30;;;;;;;18.45;47.82;97682.91;5395335;26;19996;-73
2024/04/18 10:59:10;;;;;;;2.65;1.00;;;;;;;19.24;48.61;98173.84;5383249;26;20091;-73
2024/04/18 11:01:38;;;;;;;3.97;1.20;;;;;;;18.37;48.48;97753.75;5377757;26;20085;-73
2024/04/18 11:04:05;;;;;;;2.97;1.10;;;;;;;18.46;48.53;97791.75;5447366;26;20082;-76
2024/04/18 11:06:30;;;;;;;;;;;;;;;16.80;49.02;97273.16;5389798;26;20115;-73
2024/04/18 11:08:55;;;;;;;4.32;1.13;;;;;;;17.29;50.30;97827.41;5374373;26;19932;-74
2024/04/18 11:11:26;;;;;;;2.93;1.00;;;;;;;16.93;50.76;97745.91;5388309;26;20010;-75
2024/04/18 11:13:54;;;;;;;2.92;0.98;;;;;;;16.44;52.79;97910.84;5364053;26;20399;-72
2024/04/18 11:16:19;;;;;;;4.55;1.40;;;;;;;17.03;53.56;98306.47;5387926;26;20471;-76
2024/04/18 11:18:45;;;;;;;4.67;1.30;;;;;;;18.19;53.47;98648.25;5407973;26;20039;-73
2024/04/18 11:21:13;;;;;;;;;;;;;;;16.54;53.43;98007.78;5408371;26;19995;-72
2024/04/18 11:23:38;;;;;;;5.13;1.70;;;;;;;16.76;54.94;98351.56;5393323;26;19925;-75
2024/04/18 11:26:04;;;;;;;9.63;1.90;;;;;;;16.00;55.12;98135.50;5382743;26;20077;-77
2024/04/18 11:28:29;;;;;;;5.87;1.67;;;;;;;16.03;55.16;98166.47;5372227;26;20004;-75
2024/04/18 11:30:56;;;;;;;3.90;1.20;;;;;;;16.94;55.52;98525.53;5372210;26;19996;-73
2024/04/18 11:33:21;;;;;;;3.63;1.40;;;;;;;17.02;54.70;98439.63;5373735;26;20007;-73
2024/04/18 11:35:46;;;;;;;6.57;1.90;;;;;;;18.13;53.77;98631.22;5379399;26;19995;-73
2024/04/18 11:38:18;;;;;;;2.03;1.03;;;;;;;18.17;52.35;98364.16;5381125;26;20102;-74